Map

Track Data

SID SEASON NUMBER BASIN SUBBASIN NAME ISO_TIME NATURE LAT LON WMO_WIND WMO_PRES WMO_AGENCY TRACK_TYPE DIST2LAND LANDFALL IFLAG USA_AGENCY USA_ATCF_ID USA_LAT USA_LON USA_RECORD USA_STATUS USA_WIND USA_PRES USA_SSHS USA_R34_NE USA_R34_SE USA_R34_SW USA_R34_NW USA_R50_NE USA_R50_SE USA_R50_SW USA_R50_NW USA_R64_NE USA_R64_SE USA_R64_SW USA_R64_NW USA_POCI USA_ROCI USA_RMW USA_EYE TOKYO_LAT TOKYO_LON TOKYO_GRADE TOKYO_WIND TOKYO_PRES TOKYO_R50_DIR TOKYO_R50_LONG TOKYO_R50_SHORT TOKYO_R30_DIR TOKYO_R30_LONG TOKYO_R30_SHORT TOKYO_LAND CMA_LAT CMA_LON CMA_CAT CMA_WIND CMA_PRES HKO_LAT HKO_LON HKO_CAT HKO_WIND HKO_PRES NEWDELHI_LAT NEWDELHI_LON NEWDELHI_GRADE NEWDELHI_WIND NEWDELHI_PRES NEWDELHI_CI NEWDELHI_DP NEWDELHI_POCI REUNION_LAT REUNION_LON REUNION_TYPE REUNION_WIND REUNION_PRES REUNION_TNUM REUNION_CI REUNION_RMW REUNION_R34_NE REUNION_R34_SE REUNION_R34_SW REUNION_R34_NW REUNION_R50_NE REUNION_R50_SE REUNION_R50_SW REUNION_R50_NW REUNION_R64_NE REUNION_R64_SE REUNION_R64_SW REUNION_R64_NW BOM_LAT BOM_LON BOM_TYPE BOM_WIND BOM_PRES BOM_TNUM BOM_CI BOM_RMW BOM_R34_NE BOM_R34_SE BOM_R34_SW BOM_R34_NW BOM_R50_NE BOM_R50_SE BOM_R50_SW BOM_R50_NW BOM_R64_NE BOM_R64_SE BOM_R64_SW BOM_R64_NW BOM_ROCI BOM_POCI BOM_EYE BOM_POS_METHOD BOM_PRES_METHOD NADI_LAT NADI_LON NADI_CAT NADI_WIND NADI_PRES WELLINGTON_LAT WELLINGTON_LON WELLINGTON_WIND WELLINGTON_PRES DS824_LAT DS824_LON DS824_STAGE DS824_WIND DS824_PRES TD9636_LAT TD9636_LON TD9636_STAGE TD9636_WIND TD9636_PRES TD9635_LAT TD9635_LON TD9635_WIND TD9635_PRES TD9635_ROCI NEUMANN_LAT NEUMANN_LON NEUMANN_CLASS NEUMANN_WIND NEUMANN_PRES MLC_LAT MLC_LON MLC_CLASS MLC_WIND MLC_PRES USA_GUST BOM_GUST BOM_GUST_PER REUNION_GUST REUNION_GUST_PER USA_SEAHGT USA_SEARAD_NE USA_SEARAD_SE USA_SEARAD_SW USA_SEARAD_NW STORM_SPEED STORM_DIR
1971256N25162 1971 118 WP MM NOT_NAMED 1971-09-13 00:00:00 TS 25.0000 162.000 main 2340 2289 __O___________ -1 25.0000 162.000 0 1004 11 321
1971256N25162 1971 118 WP MM NOT_NAMED 1971-09-13 03:00:00 TS 25.4101 161.635 main 2281 2223 __P___________ -1 25.4101 161.635 0 1004 11 318
1971256N25162 1971 118 WP MM NOT_NAMED 1971-09-13 06:00:00 TS 25.8000 161.200 main 2223 2162 __O___________ -1 25.8000 161.200 0 19 1004 12 309
1971256N25162 1971 118 WP MM NOT_NAMED 1971-09-13 09:00:00 TS 26.1449 160.645 main 2154 2086 __P___________ -1 26.1449 160.645 0 21 1003 12 299
1971256N25162 1971 118 WP MM NOT_NAMED 1971-09-13 12:00:00 TS 26.4000 160.000 main 2086 2030 __O___________ -1 26.4000 160.000 1 23 1002 12 288
1971256N25162 1971 118 WP MM NOT_NAMED 1971-09-13 15:00:00 TS 26.5221 159.329 main 2022 1959 __P___________ -1 26.5221 159.329 1 23 1002 13 279
1971256N25162 1971 118 WP MM NOT_NAMED 1971-09-13 18:00:00 TS 26.6000 158.600 main 1959 1896 __O___________ -1 26.6000 158.600 1 23 1002 13 280
1971256N25162 1971 118 WP MM NOT_NAMED 1971-09-13 21:00:00 TS 26.7491 157.852 main 1896 1819 __P___________ -1 26.7491 157.852 1 23 1001 15 282
1971256N25162 1971 118 WP MM NOT_NAMED 1971-09-14 00:00:00 TS 26.9000 157.000 main 1811 1734 __O___________ -1 26.9000 157.000 1 23 1000 17 278
1971256N25162 1971 118 WP MM NOT_NAMED 1971-09-14 03:00:00 TS 26.9698 155.994 main 1726 1641 __P___________ -1 26.9698 155.994 1 23 1000 19 276
1971256N25162 1971 118 WP MM NOT_NAMED 1971-09-14 06:00:00 TS 27.1000 154.900 main 1634 1529 __O___________ -1 27.1000 154.900 1 23 1000 20 282
1971256N25162 1971 118 WP MM NOT_NAMED 1971-09-14 09:00:00 TS 27.3901 153.770 main 1529 1425 __P___________ -1 27.3901 153.770 1 23 999 21 290
1971256N25162 1971 118 WP MM NOT_NAMED 1971-09-14 12:00:00 TS 27.8000 152.700 main 1418 1322 __O___________ -1 27.8000 152.700 1 23 998 20 297
1971256N25162 1971 118 WP MM NOT_NAMED 1971-09-14 15:00:00 TS 28.2615 151.797 main 1315 1219 __P___________ -1 28.2615 151.797 1 26 997 18 304
1971256N25162 1971 118 WP MM NOT_NAMED 1971-09-14 18:00:00 TS 28.8000 151.000 main 1219 1124 __O___________ -1 28.8000 151.000 1 29 996 18 308
1971256N25162 1971 118 WP MM NOT_NAMED 1971-09-14 21:00:00 TS 29.3700 150.182 main 1117 1022 __P___________ -1 29.3700 150.182 1 29 996 18 313
1971256N25162 1971 118 WP MM NOT_NAMED 1971-09-15 00:00:00 TS 30.0000 149.500 main 1022 935 __O___________ -1 30.0000 149.500 1 29 996 17 323
1971256N25162 1971 118 WP MM NOT_NAMED 1971-09-15 03:00:00 TS 30.7145 148.995 main 935 865 __P___________ -1 30.7145 148.995 1 29 996 16 334
1971256N25162 1971 118 WP MM NOT_NAMED 1971-09-15 06:00:00 TS 31.4000 148.700 main 865 826 __O___________ -1 31.4000 148.700 1 29 996 13 343
1971256N25162 1971 118 WP MM NOT_NAMED 1971-09-15 09:00:00 TS 31.9447 148.567 main 826 797 __P___________ -1 31.9447 148.567 1 29 996 10 355
1971256N25162 1971 118 WP MM NOT_NAMED 1971-09-15 12:00:00 TS 32.4000 148.600 main 797 781 __O___________ -1 32.4000 148.600 1 29 996 9 7
1971256N25162 1971 118 WP MM NOT_NAMED 1971-09-15 15:00:00 TS 32.8149 148.690 main 784 778 __P___________ -1 32.8149 148.690 1 29 996 8 18
1971256N25162 1971 118 WP MM NOT_NAMED 1971-09-15 18:00:00 TS 33.2000 148.900 main 782 774 __O___________ -1 33.2000 148.900 1 29 996 8 22
1971256N25162 1971 118 WP MM NOT_NAMED 1971-09-15 21:00:00 TS 33.5214 149.031 main 779 779 __P___________ -1 33.5214 149.031 1 29 997 10 36
1971256N25162 1971 118 WP MM NOT_NAMED 1971-09-16 00:00:00 ET 34.0000 149.600 main 814 814 __O___________ -1 34.0000 149.600 9 29 998 21 51
1971256N25162 1971 118 WP MM NOT_NAMED 1971-09-16 03:00:00 ET 34.8509 151.042 main 918 918 __P___________ -1 34.8509 151.042 9 999 33 56
1971256N25162 1971 118 WP MM NOT_NAMED 1971-09-16 06:00:00 ET 35.8000 152.900 main 1033 1033 __O___________ -1 35.8000 152.900 9 1000 34 58
1971256N25162 1971 118 WP MM NOT_NAMED 1971-09-16 09:00:00 ET 36.6296 154.578 main 1065 1063 __P___________ -1 36.6296 154.578 9 1002 31 61
1971256N25162 1971 118 WP MM NOT_NAMED 1971-09-16 12:00:00 ET 37.3000 156.300 main 1072 1071 __O___________ -1 37.3000 156.300 9 1004 30 69
1971256N25162 1971 118 WP MM NOT_NAMED 1971-09-16 15:00:00 ET 37.7082 158.098 main 1119 1119 __P___________ -1 37.7082 158.098 9 1006 29 76
1971256N25162 1971 118 WP MM NOT_NAMED 1971-09-16 18:00:00 ET 38.0000 159.900 main 1188 1188 __O___________ -1 38.0000 159.900 9 1008 28 77
1971256N25162 1971 118 WP MM NOT_NAMED 1971-09-16 21:00:00 ET 38.3596 161.607 main 1252 1252 __P___________ -1 38.3596 161.607 9 1010 28 76
1971256N25162 1971 118 WP MM NOT_NAMED 1971-09-17 00:00:00 ET 38.7000 163.400 main 1342 1342 __O___________ -1 38.7000 163.400 9 1012 31 79
1971256N25162 1971 118 WP MM NOT_NAMED 1971-09-17 03:00:00 ET 38.9501 165.473 main 1454 1454 __P___________ -1 38.9501 165.473 9 1012 33 81
1971256N25162 1971 118 WP MM NOT_NAMED 1971-09-17 06:00:00 ET 39.2000 167.600 main 1526 1526 __O___________ -1 39.2000 167.600 9 1012 32 80
1971256N25162 1971 118 WP MM NOT_NAMED 1971-09-17 09:00:00 ET 39.5289 169.592 main 1598 1598 __P___________ -1 39.5289 169.592 9 1012 31 77
1971256N25162 1971 118 WP MM NOT_NAMED 1971-09-17 12:00:00 ET 39.9000 171.500 main 1666 __O___________ -1 39.9000 171.500 9 1012 30 76

Digital Typhoon Data and Search

About IBTrACS Database

This database is a web-friendly format of International Best Track Archive for Climate Stewardship (IBTrACS), a global best track data archive curated by NOAA dating back to 1842.

Updated: 2021-11-26